createdAt,value
2022-09-17T00:00:22.022Z,13.50
2022-09-17T00:02:55.722Z,15.45
2022-09-17T00:05:28.348Z,13.40
2022-09-17T00:07:57.952Z,13.93
2022-09-17T00:10:28.190Z,17.60
2022-09-17T00:12:58.260Z,18.73
2022-09-17T00:15:27.875Z,11.00
2022-09-17T00:17:58.592Z,14.30
2022-09-17T00:20:30.844Z,9.60
2022-09-17T00:23:00.409Z,25.47
2022-09-17T00:25:30.005Z,14.10
2022-09-17T00:27:59.555Z,15.10
2022-09-17T00:30:29.094Z,16.15
2022-09-17T00:32:58.652Z,14.52
2022-09-17T00:35:30.950Z,14.25
2022-09-17T00:38:00.614Z,22.47
2022-09-17T00:40:30.359Z,15.73
2022-09-17T00:42:59.950Z,16.97
2022-09-17T00:45:30.099Z,18.63
2022-09-17T00:48:01.549Z,14.02
2022-09-17T00:50:37.827Z,16.80
2022-09-17T00:53:09.560Z,13.73
2022-09-17T00:55:41.735Z,18.30
2022-09-17T00:58:14.180Z,19.10
2022-09-17T01:00:46.292Z,13.98
2022-09-17T01:03:16.297Z,22.38
2022-09-17T01:05:51.814Z,14.15
2022-09-17T01:08:28.587Z,14.55
2022-09-17T01:11:22.888Z,16.50
2022-09-17T01:13:59.929Z,11.48
2022-09-17T01:16:34.950Z,15.73
2022-09-17T01:19:23.111Z,17.85
2022-09-17T01:22:03.963Z,22.33
2022-09-17T01:24:50.041Z,14.45
2022-09-17T01:27:51.631Z,17.23
2022-09-17T01:30:43.829Z,18.05
2022-09-17T01:33:20.168Z,19.60
2022-09-17T01:35:54.081Z,15.13
2022-09-17T01:38:29.250Z,15.48
2022-09-17T01:41:02.386Z,14.85
2022-09-17T01:43:37.049Z,17.25
2022-09-17T01:46:12.220Z,21.65
2022-09-17T01:48:50.281Z,17.50
2022-09-17T01:51:23.025Z,19.00
2022-09-17T01:53:57.975Z,20.10
2022-09-17T01:56:31.009Z,18.98
2022-09-17T01:59:04.929Z,16.93
2022-09-17T02:01:35.269Z,21.08
2022-09-17T02:04:11.354Z,14.65
2022-09-17T02:06:44.447Z,13.80
2022-09-17T02:09:18.260Z,12.68
2022-09-17T02:11:52.060Z,15.82
2022-09-17T02:14:24.002Z,16.17
2022-09-17T02:16:56.323Z,17.70
2022-09-17T02:19:31.559Z,21.08
2022-09-17T02:22:04.898Z,25.05
2022-09-17T02:24:38.390Z,14.77
2022-09-17T02:27:10.926Z,16.05
2022-09-17T02:29:42.893Z,17.00
2022-09-17T02:32:13.078Z,16.23
2022-09-17T02:34:45.332Z,23.73
2022-09-17T02:37:15.165Z,23.60
2022-09-17T02:39:45.297Z,17.85
2022-09-17T02:42:24.964Z,23.42
2022-09-17T02:45:02.481Z,20.73
2022-09-17T02:47:41.076Z,14.03
2022-09-17T02:50:22.688Z,21.02
2022-09-17T02:53:00.835Z,17.40
2022-09-17T02:55:35.807Z,14.90
2022-09-17T02:58:12.664Z,18.30
2022-09-17T03:00:43.098Z,18.17
2022-09-17T03:03:15.527Z,25.77
2022-09-17T03:05:47.811Z,27.52
2022-09-17T03:08:20.211Z,20.02
2022-09-17T03:10:50.344Z,17.85
2022-09-17T03:13:20.285Z,18.42
2022-09-17T03:15:49.972Z,25.60
2022-09-17T03:18:19.597Z,19.95
2022-09-17T03:20:51.886Z,14.98
2022-09-17T03:23:21.573Z,21.30
2022-09-17T03:25:52.074Z,14.13
2022-09-17T03:28:21.638Z,14.50
2022-09-17T03:30:51.267Z,19.02
2022-09-17T03:33:20.890Z,15.63
2022-09-17T03:35:53.100Z,19.73
2022-09-17T03:38:22.702Z,15.95
2022-09-17T03:41:00.621Z,13.90
2022-09-17T03:43:30.380Z,18.88
2022-09-17T03:46:00.432Z,20.00
2022-09-17T03:48:30.398Z,18.00
2022-09-17T03:51:02.681Z,18.08
2022-09-17T03:53:32.345Z,17.15
2022-09-17T03:56:02.211Z,18.65
2022-09-17T03:58:32.636Z,13.60
2022-09-17T04:01:03.486Z,12.73
2022-09-17T04:03:33.516Z,20.08
2022-09-17T04:06:05.956Z,20.88
2022-09-17T04:08:36.672Z,20.52
2022-09-17T04:11:07.824Z,12.45
2022-09-17T04:13:37.648Z,16.90
2022-09-17T04:16:07.453Z,12.70
2022-09-17T04:18:37.319Z,13.18
2022-09-17T04:21:09.815Z,25.45
2022-09-17T04:23:39.371Z,12.60
2022-09-17T04:26:09.044Z,17.83
2022-09-17T04:28:38.611Z,17.50
2022-09-17T04:31:08.367Z,13.80
2022-09-17T04:33:38.019Z,13.68
2022-09-17T04:36:10.306Z,12.73
2022-09-17T04:38:39.923Z,11.98
2022-09-17T04:41:10.011Z,16.05
2022-09-17T04:43:39.671Z,15.65
2022-09-17T04:46:09.516Z,18.17
2022-09-17T04:48:39.274Z,14.93
2022-09-17T04:51:11.551Z,14.88
2022-09-17T04:53:41.206Z,11.13
2022-09-17T04:56:10.818Z,19.30
2022-09-17T04:58:40.506Z,20.40
2022-09-17T05:01:11.097Z,19.52
2022-09-17T05:03:40.762Z,19.02
2022-09-17T05:06:13.165Z,12.65
2022-09-17T05:08:42.762Z,20.43
2022-09-17T05:11:12.295Z,23.15
2022-09-17T05:13:42.090Z,15.52
2022-09-17T05:16:12.081Z,18.15
2022-09-17T05:18:41.731Z,16.65
2022-09-17T05:21:14.287Z,15.23
2022-09-17T05:23:43.851Z,18.63
2022-09-17T05:26:13.656Z,17.55
2022-09-17T05:28:43.363Z,18.65
2022-09-17T05:31:13.609Z,15.75
2022-09-17T05:33:43.340Z,16.75
2022-09-17T05:36:15.519Z,15.57
2022-09-17T05:38:45.147Z,17.52
2022-09-17T05:41:14.892Z,24.00
2022-09-17T05:43:46.275Z,17.50
2022-09-17T05:46:15.957Z,11.25
2022-09-17T05:48:46.346Z,12.37
2022-09-17T05:51:18.996Z,16.73
2022-09-17T05:53:48.619Z,13.80
2022-09-17T05:56:19.465Z,16.63
2022-09-17T05:58:49.190Z,11.93
2022-09-17T06:01:19.053Z,12.48
2022-09-17T06:18:17.156Z,10.95
2022-09-17T06:20:46.784Z,15.83
2022-09-17T06:23:16.484Z,15.90
2022-09-17T06:25:46.044Z,21.37
2022-09-17T06:28:15.606Z,17.17
2022-09-17T06:30:45.167Z,9.35
2022-09-17T06:33:17.488Z,17.23
2022-09-17T06:35:47.319Z,14.13
2022-09-17T06:38:16.935Z,14.40
2022-09-17T06:40:46.750Z,15.13
2022-09-17T06:43:16.294Z,16.40
2022-09-17T06:45:46.033Z,13.00
2022-09-17T06:48:18.556Z,10.20
2022-09-17T06:50:48.509Z,13.70
2022-09-17T06:53:19.998Z,15.38
2022-09-17T06:55:49.703Z,14.10
2022-09-17T06:58:19.387Z,14.83
2022-09-17T07:00:49.100Z,20.48
2022-09-17T07:03:23.368Z,20.47
2022-09-17T07:05:53.120Z,11.48
2022-09-17T07:08:22.664Z,15.23
2022-09-17T07:10:52.500Z,16.17
2022-09-17T07:13:22.087Z,13.85
2022-09-17T07:15:56.160Z,30.70
2022-09-17T07:18:28.683Z,15.27
2022-09-17T07:20:59.134Z,12.13
2022-09-17T07:23:29.889Z,11.82
2022-09-17T07:26:00.931Z,12.90
2022-09-17T07:28:31.531Z,15.43
2022-09-17T07:31:01.132Z,26.20
2022-09-17T07:33:33.326Z,16.15
2022-09-17T07:36:04.952Z,13.77
2022-09-17T07:38:35.190Z,18.52
2022-09-17T07:41:06.093Z,16.63
2022-09-17T07:43:37.583Z,17.23
2022-09-17T07:46:08.805Z,15.02
2022-09-17T07:48:41.041Z,20.48
2022-09-17T07:51:10.660Z,17.15
2022-09-17T07:53:40.307Z,9.27
2022-09-17T07:56:12.007Z,11.25
2022-09-17T07:58:42.267Z,17.53
2022-09-17T08:01:13.563Z,20.05
2022-09-17T08:03:46.934Z,13.40
2022-09-17T08:06:18.498Z,13.10
2022-09-17T08:08:48.546Z,14.77
2022-09-17T08:11:38.184Z,15.80
2022-09-17T08:14:09.132Z,13.68
2022-09-17T08:16:38.791Z,10.80
2022-09-17T08:19:11.685Z,9.68
2022-09-17T08:21:41.500Z,11.00
2022-09-17T08:24:11.498Z,13.43
2022-09-17T08:26:41.485Z,15.38
2022-09-17T08:29:11.351Z,16.40
2022-09-17T08:31:41.096Z,10.00
2022-09-17T08:34:13.956Z,8.95
2022-09-17T08:36:43.627Z,11.82
2022-09-17T08:39:13.266Z,6.82
2022-09-17T08:41:55.201Z,13.18
2022-09-17T08:44:28.083Z,12.68
2022-09-17T08:47:06.305Z,9.98
2022-09-17T08:49:39.950Z,14.10
2022-09-17T08:52:33.082Z,7.95
2022-09-17T08:55:11.676Z,10.93
2022-09-17T08:57:48.845Z,12.75
2022-09-17T09:00:20.423Z,18.30
2022-09-17T12:58:14.913Z,4.10
2022-09-17T13:00:49.201Z,5.10
2022-09-17T13:03:23.261Z,5.35
2022-09-17T13:06:13.617Z,4.30
2022-09-17T13:09:21.683Z,3.28
2022-09-17T13:12:04.716Z,2.20
2022-09-17T13:14:51.996Z,5.30
2022-09-17T13:17:28.541Z,3.45
2022-09-17T13:20:04.530Z,5.17
2022-09-17T13:22:35.251Z,5.07
2022-09-17T13:25:07.234Z,3.55
2022-09-17T13:27:37.708Z,4.50
2022-09-17T13:30:11.952Z,4.43
2022-09-17T13:32:55.633Z,4.60
2022-09-17T13:35:49.338Z,3.13
2022-09-17T13:38:23.121Z,4.10
2022-09-17T13:40:54.234Z,6.30
2022-09-17T13:43:27.841Z,8.77
2022-09-17T13:46:15.655Z,7.93
2022-09-17T13:48:51.982Z,6.50
2022-09-17T13:51:52.272Z,8.20
2022-09-17T13:54:24.386Z,9.93
2022-09-17T13:57:07.941Z,11.47
2022-09-17T13:59:39.142Z,14.23
2022-09-17T14:02:39.401Z,10.30
2022-09-17T14:46:24.491Z,4.40
2022-09-17T14:48:56.829Z,6.75
2022-09-17T14:51:31.774Z,8.50
2022-09-17T14:54:26.326Z,8.43
2022-09-17T14:57:03.722Z,7.88
2022-09-17T14:59:43.769Z,12.02
2022-09-17T15:02:32.585Z,9.30
2022-09-17T15:05:06.070Z,10.88
2022-09-17T15:07:35.716Z,11.20
2022-09-17T15:10:15.646Z,8.43
2022-09-17T15:12:46.003Z,5.75
2022-09-17T15:15:21.064Z,7.70
2022-09-17T15:17:51.285Z,10.30
2022-09-17T15:20:25.689Z,8.15
2022-09-17T15:22:59.050Z,9.52
2022-09-17T15:25:32.397Z,9.38
2022-09-17T15:28:07.959Z,11.65
2022-09-17T15:30:37.915Z,9.82
2022-09-17T15:33:12.541Z,6.95
2022-09-17T15:35:45.003Z,12.35
2022-09-17T15:38:28.123Z,9.00
2022-09-17T15:40:58.280Z,9.23
2022-09-17T15:43:30.255Z,8.25
2022-09-17T15:46:01.528Z,8.90
2022-09-17T15:48:39.639Z,11.07
2022-09-17T15:51:26.255Z,8.13
2022-09-17T15:53:57.391Z,7.22
2022-09-17T15:56:28.951Z,4.35
2022-09-17T15:59:03.204Z,5.13
2022-09-17T16:01:56.495Z,4.30
2022-09-17T16:04:31.178Z,7.30
2022-09-17T16:07:32.777Z,5.75
2022-09-17T16:10:02.419Z,5.57
2022-09-17T16:12:32.023Z,2.75
2022-09-17T16:15:03.169Z,3.83
2022-09-17T16:17:43.246Z,3.65
2022-09-17T16:20:18.001Z,6.00
2022-09-17T16:22:50.763Z,4.03
2022-09-17T16:25:21.136Z,5.80
2022-09-17T16:27:53.786Z,7.32
2022-09-17T16:30:24.775Z,8.10
2022-09-17T16:32:54.789Z,48.60
2022-09-17T16:35:25.825Z,52.70
2022-09-17T16:37:59.080Z,30.23
2022-09-17T16:40:31.195Z,13.90
2022-09-17T16:43:03.303Z,9.10
2022-09-17T16:45:33.519Z,4.70
2022-09-17T16:48:03.274Z,5.60
2022-09-17T16:50:33.088Z,4.03
2022-09-17T16:53:06.437Z,4.70
2022-09-17T16:55:36.016Z,4.55
2022-09-17T16:58:05.599Z,3.63
2022-09-17T17:00:36.685Z,3.40
2022-09-17T17:03:07.599Z,3.80
2022-09-17T17:05:39.590Z,3.20
2022-09-17T17:08:14.525Z,8.10
2022-09-17T17:10:44.350Z,3.42
2022-09-17T17:13:14.013Z,5.55
2022-09-17T17:15:44.072Z,3.50
2022-09-17T17:18:13.730Z,6.57
2022-09-17T17:20:43.343Z,6.57
2022-09-17T17:23:15.579Z,7.20
2022-09-17T17:25:45.217Z,6.70
2022-09-17T17:28:15.001Z,6.40
2022-09-17T17:30:44.797Z,5.97
2022-09-17T17:33:14.373Z,5.47
2022-09-17T17:35:45.490Z,8.35
2022-09-17T17:38:19.904Z,6.40
2022-09-17T17:40:49.594Z,9.95
2022-09-17T17:43:19.199Z,6.88
2022-09-17T17:45:48.890Z,5.85
2022-09-17T17:48:18.479Z,7.35
2022-09-17T17:50:48.355Z,9.83
2022-09-17T17:53:20.731Z,11.40
2022-09-17T17:55:59.570Z,7.05
2022-09-17T17:58:29.548Z,9.15
2022-09-17T18:00:59.202Z,9.10
2022-09-17T18:03:29.111Z,7.53
2022-09-17T18:06:00.578Z,11.13
2022-09-17T18:08:32.760Z,11.80
2022-09-17T18:11:04.084Z,8.32
2022-09-17T18:13:34.348Z,8.93
2022-09-17T18:16:05.076Z,7.70
2022-09-17T18:18:42.123Z,9.60
2022-09-17T18:21:15.836Z,10.50
2022-09-17T18:23:48.270Z,9.63
2022-09-17T18:26:19.108Z,7.03
2022-09-17T18:28:48.851Z,10.90
2022-09-17T18:31:23.741Z,7.95
2022-09-17T18:33:55.727Z,9.52
2022-09-17T18:36:25.360Z,10.05
2022-09-17T18:39:24.135Z,15.38
2022-09-17T18:41:51.541Z,9.27
2022-09-17T18:44:22.029Z,13.57
2022-09-17T18:46:52.121Z,13.38
2022-09-17T18:49:21.951Z,11.88
2022-09-17T18:51:51.650Z,12.32
2022-09-17T18:54:24.020Z,14.55
2022-09-17T18:56:53.609Z,13.70
2022-09-17T18:59:23.128Z,14.43
2022-09-17T19:01:52.818Z,13.90
2022-09-17T19:04:23.026Z,13.38
2022-09-17T19:06:52.606Z,16.00
2022-09-17T19:09:24.723Z,16.63
2022-09-17T19:11:54.371Z,12.23
2022-09-17T19:14:23.955Z,18.97
2022-09-17T19:16:55.240Z,15.55
2022-09-17T19:19:24.816Z,10.27
2022-09-17T19:21:54.561Z,16.70
2022-09-17T19:24:26.770Z,13.63
2022-09-17T19:26:56.327Z,22.75
2022-09-17T19:29:26.004Z,15.43
2022-09-17T19:31:56.218Z,20.47
2022-09-17T19:34:25.934Z,22.13
2022-09-17T19:36:55.883Z,14.65
2022-09-17T19:39:28.229Z,14.32
2022-09-17T19:41:58.070Z,20.88
2022-09-17T19:44:31.153Z,12.80
2022-09-17T19:47:01.079Z,14.90
2022-09-17T19:49:31.469Z,16.30
2022-09-17T19:52:01.700Z,16.65
2022-09-17T19:54:34.084Z,11.98
2022-09-17T19:57:04.218Z,8.95
2022-09-17T19:59:34.020Z,14.52
2022-09-17T20:02:03.700Z,17.45
2022-09-17T20:04:34.301Z,17.38
2022-09-17T20:07:04.616Z,20.52
2022-09-17T20:09:36.970Z,14.95
2022-09-17T20:12:07.223Z,15.30
2022-09-17T20:14:36.991Z,16.17
2022-09-17T20:17:06.834Z,18.85
2022-09-17T20:19:36.360Z,18.15
2022-09-17T20:22:06.117Z,22.50
2022-09-17T20:24:38.306Z,18.52
2022-09-17T20:27:08.091Z,23.05
2022-09-17T20:29:37.706Z,14.30
2022-09-17T20:32:07.450Z,18.77
2022-09-17T20:34:37.029Z,9.57
2022-09-17T20:37:13.032Z,11.00
2022-09-17T20:39:45.502Z,10.80
2022-09-17T20:42:15.071Z,13.50
2022-09-17T20:44:44.597Z,17.52
2022-09-17T20:47:14.212Z,22.95
2022-09-17T20:49:43.803Z,14.73
2022-09-17T20:52:14.470Z,11.80
2022-09-17T20:54:48.979Z,12.17
2022-09-17T20:57:18.551Z,15.00
2022-09-17T20:59:53.423Z,17.33
2022-09-17T21:02:25.433Z,11.88
2022-09-17T21:04:55.202Z,13.02
2022-09-17T21:07:24.928Z,11.73
2022-09-17T21:09:57.076Z,12.68
2022-09-17T21:12:27.730Z,15.45
2022-09-17T21:14:57.307Z,11.88
2022-09-17T21:17:27.163Z,10.40
2022-09-17T21:19:57.811Z,10.10
2022-09-17T21:22:27.315Z,9.23
2022-09-17T21:24:59.485Z,7.85
2022-09-17T21:27:29.015Z,9.90
2022-09-17T21:29:58.556Z,9.33
2022-09-17T21:32:28.133Z,9.13
2022-09-17T21:34:57.728Z,8.15
2022-09-17T21:37:27.440Z,12.03
2022-09-17T21:39:59.682Z,7.47
2022-09-17T21:42:29.254Z,6.68
2022-09-17T21:44:58.784Z,9.13
2022-09-17T21:47:28.328Z,6.35
2022-09-17T21:49:57.888Z,5.60
2022-09-17T21:52:28.197Z,8.33
2022-09-17T21:55:00.363Z,12.00
2022-09-17T21:57:30.996Z,7.67
2022-09-17T22:00:00.522Z,10.10
2022-09-17T22:02:32.521Z,11.63
2022-09-17T22:05:02.439Z,4.50
2022-09-17T22:07:32.498Z,11.27
2022-09-17T22:10:04.680Z,5.40
2022-09-17T22:12:34.235Z,9.13
2022-09-17T22:15:04.328Z,11.48
2022-09-17T22:17:33.888Z,6.88
2022-09-17T22:20:03.659Z,10.60
2022-09-17T22:22:33.270Z,12.25
2022-09-17T22:25:05.480Z,12.10
2022-09-17T22:27:35.133Z,10.07
2022-09-17T22:30:04.697Z,14.05
2022-09-17T22:32:34.294Z,12.65
2022-09-17T22:35:03.937Z,7.00
2022-09-17T22:37:33.481Z,11.45
2022-09-17T22:40:06.072Z,8.02
2022-09-17T22:42:35.803Z,12.25
2022-09-17T22:45:07.843Z,14.40
2022-09-17T22:47:37.460Z,12.25
2022-09-17T22:50:08.010Z,11.30
2022-09-17T22:52:37.840Z,13.45
2022-09-17T22:55:10.583Z,10.17
2022-09-17T22:57:40.180Z,8.23
2022-09-17T23:00:12.749Z,9.05
2022-09-17T23:02:42.383Z,8.23
2022-09-17T23:05:12.130Z,7.43
2022-09-17T23:07:41.748Z,12.32
2022-09-17T23:10:14.004Z,9.80
2022-09-17T23:12:43.660Z,10.93
2022-09-17T23:15:13.321Z,8.73
2022-09-17T23:17:42.878Z,9.55
2022-09-17T23:20:12.972Z,16.80
2022-09-17T23:22:42.629Z,7.77
2022-09-17T23:25:14.984Z,9.90
2022-09-17T23:27:44.609Z,11.10
2022-09-17T23:30:14.843Z,7.10
2022-09-17T23:32:44.472Z,9.00
2022-09-17T23:35:14.337Z,13.10
2022-09-17T23:37:43.929Z,12.00
2022-09-17T23:40:16.316Z,7.18
2022-09-17T23:42:46.160Z,10.75
2022-09-17T23:45:15.891Z,9.45
2022-09-17T23:47:45.709Z,8.68
2022-09-17T23:50:15.410Z,11.82
2022-09-17T23:52:44.961Z,14.63
2022-09-17T23:55:17.117Z,14.15
2022-09-17T23:57:46.765Z,9.60
